sensor_id;sensor_type;location;lat;lon;timestamp;temperature;humidity
67862;DHT22;54665;51.462;6.698;2023-04-25T00:01:55;7.23;79.37
67862;DHT22;54665;51.462;6.698;2023-04-25T00:04:22;7.32;79.14
67862;DHT22;54665;51.462;6.698;2023-04-25T00:06:48;7.33;79.15
67862;DHT22;54665;51.462;6.698;2023-04-25T00:09:13;7.43;78.86
67862;DHT22;54665;51.462;6.698;2023-04-25T00:11:40;7.19;79.47
67862;DHT22;54665;51.462;6.698;2023-04-25T00:14:05;7.37;79.09
67862;DHT22;54665;51.462;6.698;2023-04-25T00:16:31;7.61;78.50
67862;DHT22;54665;51.462;6.698;2023-04-25T00:19:00;7.51;78.62
67862;DHT22;54665;51.462;6.698;2023-04-25T00:21:26;7.51;78.49
67862;DHT22;54665;51.462;6.698;2023-04-25T00:23:53;7.46;78.29
67862;DHT22;54665;51.462;6.698;2023-04-25T00:26:18;7.16;79.43
67862;DHT22;54665;51.462;6.698;2023-04-25T00:28:46;7.08;80.01
67862;DHT22;54665;51.462;6.698;2023-04-25T00:31:11;7.09;79.90
67862;DHT22;54665;51.462;6.698;2023-04-25T00:33:37;6.95;80.72
67862;DHT22;54665;51.462;6.698;2023-04-25T00:36:03;6.88;80.56
67862;DHT22;54665;51.462;6.698;2023-04-25T00:38:28;6.84;80.95
67862;DHT22;54665;51.462;6.698;2023-04-25T00:40:53;6.81;80.82
67862;DHT22;54665;51.462;6.698;2023-04-25T00:43:21;6.77;80.94
67862;DHT22;54665;51.462;6.698;2023-04-25T00:45:47;6.74;81.65
67862;DHT22;54665;51.462;6.698;2023-04-25T00:48:17;6.85;80.96
67862;DHT22;54665;51.462;6.698;2023-04-25T00:50:48;6.82;81.35
67862;DHT22;54665;51.462;6.698;2023-04-25T00:53:16;7.06;81.21
67862;DHT22;54665;51.462;6.698;2023-04-25T00:55:41;7.15;80.71
67862;DHT22;54665;51.462;6.698;2023-04-25T00:58:06;7.24;80.51
67862;DHT22;54665;51.462;6.698;2023-04-25T01:00:32;7.33;80.49
67862;DHT22;54665;51.462;6.698;2023-04-25T01:02:58;7.63;79.90
67862;DHT22;54665;51.462;6.698;2023-04-25T01:05:23;7.54;80.11
67862;DHT22;54665;51.462;6.698;2023-04-25T01:07:49;7.54;80.20
67862;DHT22;54665;51.462;6.698;2023-04-25T01:10:14;7.80;79.31
67862;DHT22;54665;51.462;6.698;2023-04-25T01:12:40;7.51;79.79
67862;DHT22;54665;51.462;6.698;2023-04-25T01:15:06;7.71;79.81
67862;DHT22;54665;51.462;6.698;2023-04-25T01:17:33;7.81;79.32
67862;DHT22;54665;51.462;6.698;2023-04-25T01:19:59;7.83;79.48
67862;DHT22;54665;51.462;6.698;2023-04-25T01:22:24;7.73;79.82
67862;DHT22;54665;51.462;6.698;2023-04-25T01:24:50;7.81;79.34
67862;DHT22;54665;51.462;6.698;2023-04-25T01:27:16;7.54;80.02
67862;DHT22;54665;51.462;6.698;2023-04-25T01:29:42;7.87;79.43
67862;DHT22;54665;51.462;6.698;2023-04-25T01:32:08;7.85;79.52
67862;DHT22;54665;51.462;6.698;2023-04-25T01:34:33;7.92;79.54
67862;DHT22;54665;51.462;6.698;2023-04-25T01:37:00;8.09;78.89
67862;DHT22;54665;51.462;6.698;2023-04-25T01:39:27;7.92;79.36
67862;DHT22;54665;51.462;6.698;2023-04-25T01:41:53;7.81;79.80
67862;DHT22;54665;51.462;6.698;2023-04-25T01:44:19;7.97;79.24
67862;DHT22;54665;51.462;6.698;2023-04-25T01:46:44;7.90;79.74
67862;DHT22;54665;51.462;6.698;2023-04-25T01:49:10;7.83;79.55
67862;DHT22;54665;51.462;6.698;2023-04-25T01:51:36;7.74;80.06
67862;DHT22;54665;51.462;6.698;2023-04-25T01:54:01;7.80;80.09
67862;DHT22;54665;51.462;6.698;2023-04-25T01:56:32;7.91;79.74
67862;DHT22;54665;51.462;6.698;2023-04-25T01:58:59;7.84;80.19
67862;DHT22;54665;51.462;6.698;2023-04-25T02:01:31;7.64;80.61
67862;DHT22;54665;51.462;6.698;2023-04-25T02:04:11;7.73;80.64
67862;DHT22;54665;51.462;6.698;2023-04-25T02:06:39;7.69;80.86
67862;DHT22;54665;51.462;6.698;2023-04-25T02:09:05;7.63;80.41
67862;DHT22;54665;51.462;6.698;2023-04-25T02:11:31;7.66;80.99
67862;DHT22;54665;51.462;6.698;2023-04-25T02:14:15;7.67;80.75
67862;DHT22;54665;51.462;6.698;2023-04-25T02:16:47;7.61;81.12
67862;DHT22;54665;51.462;6.698;2023-04-25T02:19:12;7.83;80.33
67862;DHT22;54665;51.462;6.698;2023-04-25T02:21:37;7.84;80.45
67862;DHT22;54665;51.462;6.698;2023-04-25T02:24:03;7.73;80.50
67862;DHT22;54665;51.462;6.698;2023-04-25T02:26:29;7.67;80.69
67862;DHT22;54665;51.462;6.698;2023-04-25T02:28:56;7.61;81.13
67862;DHT22;54665;51.462;6.698;2023-04-25T02:31:22;7.54;81.10
67862;DHT22;54665;51.462;6.698;2023-04-25T02:33:48;7.56;80.86
67862;DHT22;54665;51.462;6.698;2023-04-25T02:36:13;7.44;81.72
67862;DHT22;54665;51.462;6.698;2023-04-25T02:38:40;7.44;81.91
67862;DHT22;54665;51.462;6.698;2023-04-25T02:41:06;7.49;81.88
67862;DHT22;54665;51.462;6.698;2023-04-25T02:43:31;7.47;82.02
67862;DHT22;54665;51.462;6.698;2023-04-25T02:45:56;7.44;81.81
67862;DHT22;54665;51.462;6.698;2023-04-25T02:48:22;7.61;81.37
67862;DHT22;54665;51.462;6.698;2023-04-25T02:50:48;7.54;81.06
67862;DHT22;54665;51.462;6.698;2023-04-25T02:53:13;7.47;81.31
67862;DHT22;54665;51.462;6.698;2023-04-25T02:55:44;7.46;81.54
67862;DHT22;54665;51.462;6.698;2023-04-25T02:58:10;7.47;81.92
67862;DHT22;54665;51.462;6.698;2023-04-25T03:00:43;7.49;81.39
67862;DHT22;54665;51.462;6.698;2023-04-25T03:03:08;7.39;81.72
67862;DHT22;54665;51.462;6.698;2023-04-25T03:05:34;7.50;81.41
67862;DHT22;54665;51.462;6.698;2023-04-25T03:07:59;7.33;82.10
67862;DHT22;54665;51.462;6.698;2023-04-25T03:10:26;7.60;81.33
67862;DHT22;54665;51.462;6.698;2023-04-25T03:12:52;7.66;81.02
67862;DHT22;54665;51.462;6.698;2023-04-25T03:15:18;7.59;81.43
67862;DHT22;54665;51.462;6.698;2023-04-25T03:17:44;7.49;81.56
67862;DHT22;54665;51.462;6.698;2023-04-25T03:20:10;7.42;81.56
67862;DHT22;54665;51.462;6.698;2023-04-25T03:22:36;7.54;81.83
67862;DHT22;54665;51.462;6.698;2023-04-25T03:25:01;7.60;81.29
67862;DHT22;54665;51.462;6.698;2023-04-25T03:27:27;7.56;81.35
67862;DHT22;54665;51.462;6.698;2023-04-25T03:29:52;7.46;81.80
67862;DHT22;54665;51.462;6.698;2023-04-25T03:32:18;7.24;81.95
67862;DHT22;54665;51.462;6.698;2023-04-25T03:34:45;7.32;81.96
67862;DHT22;54665;51.462;6.698;2023-04-25T03:37:10;7.44;81.48
67862;DHT22;54665;51.462;6.698;2023-04-25T03:39:37;7.32;81.54
67862;DHT22;54665;51.462;6.698;2023-04-25T03:42:05;7.47;81.20
67862;DHT22;54665;51.462;6.698;2023-04-25T03:44:30;7.23;81.78
67862;DHT22;54665;51.462;6.698;2023-04-25T03:46:56;7.27;82.04
67862;DHT22;54665;51.462;6.698;2023-04-25T03:49:24;7.32;82.14
67862;DHT22;54665;51.462;6.698;2023-04-25T03:51:59;7.33;81.93
67862;DHT22;54665;51.462;6.698;2023-04-25T03:54:26;7.22;82.01
67862;DHT22;54665;51.462;6.698;2023-04-25T03:57:00;7.40;81.17
67862;DHT22;54665;51.462;6.698;2023-04-25T03:59:28;7.26;81.67
67862;DHT22;54665;51.462;6.698;2023-04-25T04:01:54;7.37;81.33
67862;DHT22;54665;51.462;6.698;2023-04-25T04:04:20;7.43;81.01
67862;DHT22;54665;51.462;6.698;2023-04-25T04:06:46;7.01;82.08
67862;DHT22;54665;51.462;6.698;2023-04-25T04:09:17;6.99;82.08
67862;DHT22;54665;51.462;6.698;2023-04-25T04:11:43;6.89;82.14
67862;DHT22;54665;51.462;6.698;2023-04-25T04:14:09;6.64;83.55
67862;DHT22;54665;51.462;6.698;2023-04-25T04:16:38;6.61;84.04
67862;DHT22;54665;51.462;6.698;2023-04-25T04:19:03;6.61;83.23
67862;DHT22;54665;51.462;6.698;2023-04-25T04:21:29;6.58;83.64
67862;DHT22;54665;51.462;6.698;2023-04-25T04:23:55;6.64;83.47
67862;DHT22;54665;51.462;6.698;2023-04-25T04:26:21;6.40;83.94
67862;DHT22;54665;51.462;6.698;2023-04-25T04:28:56;6.36;84.04
67862;DHT22;54665;51.462;6.698;2023-04-25T04:31:31;6.55;83.33
67862;DHT22;54665;51.462;6.698;2023-04-25T04:33:58;6.48;83.45
67862;DHT22;54665;51.462;6.698;2023-04-25T04:36:24;6.40;83.17
67862;DHT22;54665;51.462;6.698;2023-04-25T04:38:51;6.42;83.41
67862;DHT22;54665;51.462;6.698;2023-04-25T04:41:29;6.37;83.37
67862;DHT22;54665;51.462;6.698;2023-04-25T04:44:09;6.30;83.51
67862;DHT22;54665;51.462;6.698;2023-04-25T04:46:48;6.20;84.15
67862;DHT22;54665;51.462;6.698;2023-04-25T04:49:33;6.16;84.34
67862;DHT22;54665;51.462;6.698;2023-04-25T04:52:17;6.14;84.05
67862;DHT22;54665;51.462;6.698;2023-04-25T04:55:04;6.10;83.84
67862;DHT22;54665;51.462;6.698;2023-04-25T04:57:53;6.13;83.76
67862;DHT22;54665;51.462;6.698;2023-04-25T05:00:37;6.29;83.56
67862;DHT22;54665;51.462;6.698;2023-04-25T05:03:31;6.33;83.51
67862;DHT22;54665;51.462;6.698;2023-04-25T05:06:09;6.36;83.32
67862;DHT22;54665;51.462;6.698;2023-04-25T05:08:53;6.30;83.29
67862;DHT22;54665;51.462;6.698;2023-04-25T05:11:51;6.41;82.67
67862;DHT22;54665;51.462;6.698;2023-04-25T05:14:26;6.51;82.44
67862;DHT22;54665;51.462;6.698;2023-04-25T05:17:05;6.61;82.26
67862;DHT22;54665;51.462;6.698;2023-04-25T05:19:56;6.63;81.76
67862;DHT22;54665;51.462;6.698;2023-04-25T05:22:52;6.70;81.39
67862;DHT22;54665;51.462;6.698;2023-04-25T05:25:21;6.79;81.57
67862;DHT22;54665;51.462;6.698;2023-04-25T05:28:12;6.95;80.88
67862;DHT22;54665;51.462;6.698;2023-04-25T05:30:48;6.98;79.98
67862;DHT22;54665;51.462;6.698;2023-04-25T05:33:17;6.88;80.08
67862;DHT22;54665;51.462;6.698;2023-04-25T05:35:44;7.12;80.27
67862;DHT22;54665;51.462;6.698;2023-04-25T05:38:10;7.43;79.19
67862;DHT22;54665;51.462;6.698;2023-04-25T05:40:59;7.56;78.86
67862;DHT22;54665;51.462;6.698;2023-04-25T05:43:43;7.69;78.08
67862;DHT22;54665;51.462;6.698;2023-04-25T05:46:30;7.43;78.09
67862;DHT22;54665;51.462;6.698;2023-04-25T05:49:11;7.51;78.08
67862;DHT22;54665;51.462;6.698;2023-04-25T05:52:00;7.37;77.42
67862;DHT22;54665;51.462;6.698;2023-04-25T05:54:45;7.36;78.02
67862;DHT22;54665;51.462;6.698;2023-04-25T05:57:24;7.29;77.20
67862;DHT22;54665;51.462;6.698;2023-04-25T05:59:50;7.61;76.99
67862;DHT22;54665;51.462;6.698;2023-04-25T06:02:17;7.51;76.43
67862;DHT22;54665;51.462;6.698;2023-04-25T06:04:43;7.32;76.78
67862;DHT22;54665;51.462;6.698;2023-04-25T06:07:08;7.54;76.35
67862;DHT22;54665;51.462;6.698;2023-04-25T06:09:35;7.43;76.61
67862;DHT22;54665;51.462;6.698;2023-04-25T06:12:00;7.66;75.79
67862;DHT22;54665;51.462;6.698;2023-04-25T06:14:27;7.78;75.32
67862;DHT22;54665;51.462;6.698;2023-04-25T06:16:53;7.85;75.66
67862;DHT22;54665;51.462;6.698;2023-04-25T06:19:19;8.16;74.24
67862;DHT22;54665;51.462;6.698;2023-04-25T06:21:44;8.42;73.39
67862;DHT22;54665;51.462;6.698;2023-04-25T06:24:09;8.21;73.69
67862;DHT22;54665;51.462;6.698;2023-04-25T06:26:35;8.28;74.43
67862;DHT22;54665;51.462;6.698;2023-04-25T06:29:02;8.04;74.60
67862;DHT22;54665;51.462;6.698;2023-04-25T06:31:27;7.94;74.90
67862;DHT22;54665;51.462;6.698;2023-04-25T06:33:55;7.77;75.48
67862;DHT22;54665;51.462;6.698;2023-04-25T06:36:22;7.70;75.86
67862;DHT22;54665;51.462;6.698;2023-04-25T06:38:53;7.90;75.76
67862;DHT22;54665;51.462;6.698;2023-04-25T06:41:18;7.63;76.17
67862;DHT22;54665;51.462;6.698;2023-04-25T06:43:44;7.49;76.41
67862;DHT22;54665;51.462;6.698;2023-04-25T06:46:23;7.64;76.45
67862;DHT22;54665;51.462;6.698;2023-04-25T06:48:48;7.49;76.79
67862;DHT22;54665;51.462;6.698;2023-04-25T06:51:15;7.13;76.59
67862;DHT22;54665;51.462;6.698;2023-04-25T06:53:43;7.26;76.97
67862;DHT22;54665;51.462;6.698;2023-04-25T06:56:14;7.61;76.44
67862;DHT22;54665;51.462;6.698;2023-04-25T06:58:51;7.77;75.17
67862;DHT22;54665;51.462;6.698;2023-04-25T07:01:23;8.50;73.23
67862;DHT22;54665;51.462;6.698;2023-04-25T07:03:49;10.03;69.17
67862;DHT22;54665;51.462;6.698;2023-04-25T07:06:17;10.87;67.48
67862;DHT22;54665;51.462;6.698;2023-04-25T07:08:42;12.32;62.54
67862;DHT22;54665;51.462;6.698;2023-04-25T07:11:08;13.71;59.02
67862;DHT22;54665;51.462;6.698;2023-04-25T07:13:35;14.13;56.69
67862;DHT22;54665;51.462;6.698;2023-04-25T07:16:00;13.51;57.84
67862;DHT22;54665;51.462;6.698;2023-04-25T07:18:28;12.78;59.70
67862;DHT22;54665;51.462;6.698;2023-04-25T07:20:54;11.87;61.38
67862;DHT22;54665;51.462;6.698;2023-04-25T07:23:20;10.74;66.70
67862;DHT22;54665;51.462;6.698;2023-04-25T07:25:46;10.44;65.89
67862;DHT22;54665;51.462;6.698;2023-04-25T07:28:14;10.43;65.76
67862;DHT22;54665;51.462;6.698;2023-04-25T07:30:40;11.70;62.08
67862;DHT22;54665;51.462;6.698;2023-04-25T07:33:05;11.49;63.04
67862;DHT22;54665;51.462;6.698;2023-04-25T07:35:31;10.51;63.15
67862;DHT22;54665;51.462;6.698;2023-04-25T07:37:57;10.78;63.85
67862;DHT22;54665;51.462;6.698;2023-04-25T07:40:23;10.32;63.77
67862;DHT22;54665;51.462;6.698;2023-04-25T07:42:54;11.04;63.33
67862;DHT22;54665;51.462;6.698;2023-04-25T07:45:46;10.89;61.52
67862;DHT22;54665;51.462;6.698;2023-04-25T07:48:17;11.30;62.16
67862;DHT22;54665;51.462;6.698;2023-04-25T07:50:43;11.56;59.52
67862;DHT22;54665;51.462;6.698;2023-04-25T07:53:09;10.69;62.23
67862;DHT22;54665;51.462;6.698;2023-04-25T07:55:43;11.84;58.64
67862;DHT22;54665;51.462;6.698;2023-04-25T07:58:14;12.48;57.50
67862;DHT22;54665;51.462;6.698;2023-04-25T08:00:42;12.97;56.24
67862;DHT22;54665;51.462;6.698;2023-04-25T08:03:28;13.12;55.52
67862;DHT22;54665;51.462;6.698;2023-04-25T08:05:54;13.50;55.81
67862;DHT22;54665;51.462;6.698;2023-04-25T08:08:21;13.20;56.07
67862;DHT22;54665;51.462;6.698;2023-04-25T08:10:46;12.46;57.21
67862;DHT22;54665;51.462;6.698;2023-04-25T08:13:14;12.35;56.81
67862;DHT22;54665;51.462;6.698;2023-04-25T08:15:40;11.67;60.62
67862;DHT22;54665;51.462;6.698;2023-04-25T08:18:05;11.30;60.54
67862;DHT22;54665;51.462;6.698;2023-04-25T08:20:31;11.93;58.63
67862;DHT22;54665;51.462;6.698;2023-04-25T08:22:58;11.16;60.92
67862;DHT22;54665;51.462;6.698;2023-04-25T08:25:41;11.22;59.73
67862;DHT22;54665;51.462;6.698;2023-04-25T08:28:09;10.63;62.36
67862;DHT22;54665;51.462;6.698;2023-04-25T08:30:36;10.57;62.23
67862;DHT22;54665;51.462;6.698;2023-04-25T08:33:02;11.47;61.82
67862;DHT22;54665;51.462;6.698;2023-04-25T08:35:47;11.22;61.51
67862;DHT22;54665;51.462;6.698;2023-04-25T08:38:14;10.78;63.29
67862;DHT22;54665;51.462;6.698;2023-04-25T08:40:39;10.48;62.14
67862;DHT22;54665;51.462;6.698;2023-04-25T08:43:13;10.03;63.17
67862;DHT22;54665;51.462;6.698;2023-04-25T08:45:41;9.54;63.12
67862;DHT22;54665;51.462;6.698;2023-04-25T08:48:13;9.85;64.29
67862;DHT22;54665;51.462;6.698;2023-04-25T08:50:42;10.13;62.76
67862;DHT22;54665;51.462;6.698;2023-04-25T08:53:12;11.40;60.03
67862;DHT22;54665;51.462;6.698;2023-04-25T08:55:45;11.91;57.26
67862;DHT22;54665;51.462;6.698;2023-04-25T08:58:12;12.42;54.87
67862;DHT22;54665;51.462;6.698;2023-04-25T09:00:38;12.25;54.78
67862;DHT22;54665;51.462;6.698;2023-04-25T09:03:04;12.07;53.64
67862;DHT22;54665;51.462;6.698;2023-04-25T09:05:33;12.16;55.24
67862;DHT22;54665;51.462;6.698;2023-04-25T09:07:58;12.48;55.32
67862;DHT22;54665;51.462;6.698;2023-04-25T09:10:26;12.38;53.83
67862;DHT22;54665;51.462;6.698;2023-04-25T09:13:12;11.73;55.04
67862;DHT22;54665;51.462;6.698;2023-04-25T09:15:58;11.53;55.94
67862;DHT22;54665;51.462;6.698;2023-04-25T09:18:35;11.81;55.96
67862;DHT22;54665;51.462;6.698;2023-04-25T09:21:06;11.43;54.10
67862;DHT22;54665;51.462;6.698;2023-04-25T09:23:39;12.07;54.71
67862;DHT22;54665;51.462;6.698;2023-04-25T09:26:06;11.49;54.49
67862;DHT22;54665;51.462;6.698;2023-04-25T09:28:32;11.59;53.46
67862;DHT22;54665;51.462;6.698;2023-04-25T09:31:00;11.40;55.41
67862;DHT22;54665;51.462;6.698;2023-04-25T09:33:33;11.66;56.25
67862;DHT22;54665;51.462;6.698;2023-04-25T09:36:07;11.95;56.87
67862;DHT22;54665;51.462;6.698;2023-04-25T09:38:59;12.05;54.11
67862;DHT22;54665;51.462;6.698;2023-04-25T09:41:31;12.00;53.28
67862;DHT22;54665;51.462;6.698;2023-04-25T09:44:00;12.71;51.91
67862;DHT22;54665;51.462;6.698;2023-04-25T09:46:34;12.28;51.96
67862;DHT22;54665;51.462;6.698;2023-04-25T09:49:07;11.26;54.61
67862;DHT22;54665;51.462;6.698;2023-04-25T09:51:58;12.00;54.36
67862;DHT22;54665;51.462;6.698;2023-04-25T09:54:28;12.99;53.25
67862;DHT22;54665;51.462;6.698;2023-04-25T09:59:52;13.68;49.41
67862;DHT22;54665;51.462;6.698;2023-04-25T10:02:26;12.48;51.02
67862;DHT22;54665;51.462;6.698;2023-04-25T10:04:55;12.45;51.00
67862;DHT22;54665;51.462;6.698;2023-04-25T10:07:33;11.66;52.86
67862;DHT22;54665;51.462;6.698;2023-04-25T10:10:06;11.29;52.45
67862;DHT22;54665;51.462;6.698;2023-04-25T10:12:35;11.66;53.11
67862;DHT22;54665;51.462;6.698;2023-04-25T10:15:02;12.69;50.95
67862;DHT22;54665;51.462;6.698;2023-04-25T10:17:28;13.47;49.19
67862;DHT22;54665;51.462;6.698;2023-04-25T10:19:54;13.14;49.61
67862;DHT22;54665;51.462;6.698;2023-04-25T10:22:32;11.97;51.32
67862;DHT22;54665;51.462;6.698;2023-04-25T10:25:00;11.70;54.33
67862;DHT22;54665;51.462;6.698;2023-04-25T10:27:29;12.30;52.24
67862;DHT22;54665;51.462;6.698;2023-04-25T10:30:24;12.59;49.75
67862;DHT22;54665;51.462;6.698;2023-04-25T10:32:49;13.13;48.61
67862;DHT22;54665;51.462;6.698;2023-04-25T10:35:24;12.93;50.56
67862;DHT22;54665;51.462;6.698;2023-04-25T10:40:28;13.72;47.42
67862;DHT22;54665;51.462;6.698;2023-04-25T10:42:54;13.67;46.99
67862;DHT22;54665;51.462;6.698;2023-04-25T10:45:21;12.79;54.97
67862;DHT22;54665;51.462;6.698;2023-04-25T10:47:47;11.86;58.83
67862;DHT22;54665;51.462;6.698;2023-04-25T10:50:14;10.69;62.74
67862;DHT22;54665;51.462;6.698;2023-04-25T10:52:41;10.44;61.13
67862;DHT22;54665;51.462;6.698;2023-04-25T10:55:07;10.19;62.71
67862;DHT22;54665;51.462;6.698;2023-04-25T10:57:38;10.23;62.71
67862;DHT22;54665;51.462;6.698;2023-04-25T11:02:30;9.79;64.13
67862;DHT22;54665;51.462;6.698;2023-04-25T11:04:56;9.79;64.46
67862;DHT22;54665;51.462;6.698;2023-04-25T11:07:38;9.97;63.50
67862;DHT22;54665;51.462;6.698;2023-04-25T11:10:07;9.76;64.77
67862;DHT22;54665;51.462;6.698;2023-04-25T11:12:33;9.58;64.23
67862;DHT22;54665;51.462;6.698;2023-04-25T11:15:06;9.90;64.68
67862;DHT22;54665;51.462;6.698;2023-04-25T11:17:33;10.12;64.95
67862;DHT22;54665;51.462;6.698;2023-04-25T11:19:58;10.34;63.89
67862;DHT22;54665;51.462;6.698;2023-04-25T11:22:26;10.12;64.08
67862;DHT22;54665;51.462;6.698;2023-04-25T11:24:52;10.30;64.25
67862;DHT22;54665;51.462;6.698;2023-04-25T11:27:17;10.30;63.09
67862;DHT22;54665;51.462;6.698;2023-04-25T11:29:43;10.24;64.60
67862;DHT22;54665;51.462;6.698;2023-04-25T11:32:08;9.85;64.61
67862;DHT22;54665;51.462;6.698;2023-04-25T11:34:34;9.58;63.81
67862;DHT22;54665;51.462;6.698;2023-04-25T11:37:01;9.44;64.34
67862;DHT22;54665;51.462;6.698;2023-04-25T11:39:27;9.24;64.26
67862;DHT22;54665;51.462;6.698;2023-04-25T11:41:53;9.25;65.01
67862;DHT22;54665;51.462;6.698;2023-04-25T11:44:20;8.90;67.94
67862;DHT22;54665;51.462;6.698;2023-04-25T11:46:46;8.69;70.37
67862;DHT22;54665;51.462;6.698;2023-04-25T11:49:12;8.43;71.85
67862;DHT22;54665;51.462;6.698;2023-04-25T11:51:41;8.79;70.99
67862;DHT22;54665;51.462;6.698;2023-04-25T11:54:08;8.86;70.46
67862;DHT22;54665;51.462;6.698;2023-04-25T11:56:33;9.04;71.13
67862;DHT22;54665;51.462;6.698;2023-04-25T11:59:01;9.55;72.53
67862;DHT22;54665;51.462;6.698;2023-04-25T12:01:27;10.03;70.15
67862;DHT22;54665;51.462;6.698;2023-04-25T12:03:53;10.07;68.57
67862;DHT22;54665;51.462;6.698;2023-04-25T12:06:18;9.83;68.74
67862;DHT22;54665;51.462;6.698;2023-04-25T12:09:00;10.33;67.56
67862;DHT22;54665;51.462;6.698;2023-04-25T12:11:26;10.71;67.14
67862;DHT22;54665;51.462;6.698;2023-04-25T12:13:52;11.56;67.37
67862;DHT22;54665;51.462;6.698;2023-04-25T12:16:18;11.94;62.77
67862;DHT22;54665;51.462;6.698;2023-04-25T12:18:43;11.76;63.92
67862;DHT22;54665;51.462;6.698;2023-04-25T12:21:09;11.84;59.58
67862;DHT22;54665;51.462;6.698;2023-04-25T12:23:38;12.04;60.43
67862;DHT22;54665;51.462;6.698;2023-04-25T12:26:04;12.46;57.09
67862;DHT22;54665;51.462;6.698;2023-04-25T12:28:32;12.61;55.35
67862;DHT22;54665;51.462;6.698;2023-04-25T12:31:06;12.72;55.31
67862;DHT22;54665;51.462;6.698;2023-04-25T12:33:32;13.19;54.63
67862;DHT22;54665;51.462;6.698;2023-04-25T12:35:58;13.97;55.50
67862;DHT22;54665;51.462;6.698;2023-04-25T12:38:27;13.67;51.82
67862;DHT22;54665;51.462;6.698;2023-04-25T12:40:53;14.15;51.40
67862;DHT22;54665;51.462;6.698;2023-04-25T12:43:18;14.08;54.77
67862;DHT22;54665;51.462;6.698;2023-04-25T12:45:46;13.37;55.52
67862;DHT22;54665;51.462;6.698;2023-04-25T12:48:12;12.72;58.05
67862;DHT22;54665;51.462;6.698;2023-04-25T12:50:37;11.50;58.91
67862;DHT22;54665;51.462;6.698;2023-04-25T12:53:03;10.84;61.34
67862;DHT22;54665;51.462;6.698;2023-04-25T12:55:29;9.87;63.35
67862;DHT22;54665;51.462;6.698;2023-04-25T12:57:54;9.51;63.97
67862;DHT22;54665;51.462;6.698;2023-04-25T13:00:20;9.62;63.92
67862;DHT22;54665;51.462;6.698;2023-04-25T13:02:45;9.66;64.51
67862;DHT22;54665;51.462;6.698;2023-04-25T13:05:14;9.81;63.78
67862;DHT22;54665;51.462;6.698;2023-04-25T13:07:40;9.99;64.07
67862;DHT22;54665;51.462;6.698;2023-04-25T13:10:06;9.97;63.15
67862;DHT22;54665;51.462;6.698;2023-04-25T13:12:32;10.38;62.69
67862;DHT22;54665;51.462;6.698;2023-04-25T13:14:58;11.52;59.15
67862;DHT22;54665;51.462;6.698;2023-04-25T13:17:23;12.07;58.11
67862;DHT22;54665;51.462;6.698;2023-04-25T13:19:48;11.98;57.72
67862;DHT22;54665;51.462;6.698;2023-04-25T13:22:14;12.71;57.12
67862;DHT22;54665;51.462;6.698;2023-04-25T13:24:42;13.07;57.24
67862;DHT22;54665;51.462;6.698;2023-04-25T13:27:07;13.64;56.38
67862;DHT22;54665;51.462;6.698;2023-04-25T13:29:32;13.85;51.46
67862;DHT22;54665;51.462;6.698;2023-04-25T13:32:00;14.53;51.35
67862;DHT22;54665;51.462;6.698;2023-04-25T13:34:26;14.63;50.80
67862;DHT22;54665;51.462;6.698;2023-04-25T13:36:51;13.78;49.46
67862;DHT22;54665;51.462;6.698;2023-04-25T13:39:17;12.80;52.51
67862;DHT22;54665;51.462;6.698;2023-04-25T13:41:42;12.38;52.72
67862;DHT22;54665;51.462;6.698;2023-04-25T13:44:08;11.93;52.94
67862;DHT22;54665;51.462;6.698;2023-04-25T13:46:33;12.16;53.22
67862;DHT22;54665;51.462;6.698;2023-04-25T13:48:59;12.13;54.70
67862;DHT22;54665;51.462;6.698;2023-04-25T13:51:24;12.28;53.56
67862;DHT22;54665;51.462;6.698;2023-04-25T13:53:51;13.10;50.76
67862;DHT22;54665;51.462;6.698;2023-04-25T13:56:16;12.97;48.89
67862;DHT22;54665;51.462;6.698;2023-04-25T13:58:41;12.65;50.54
67862;DHT22;54665;51.462;6.698;2023-04-25T14:01:07;12.52;49.98
67862;DHT22;54665;51.462;6.698;2023-04-25T14:03:32;12.55;50.57
67862;DHT22;54665;51.462;6.698;2023-04-25T14:05:58;12.53;51.21
67862;DHT22;54665;51.462;6.698;2023-04-25T14:08:23;12.01;52.64
67862;DHT22;54665;51.462;6.698;2023-04-25T14:10:48;11.71;52.25
67862;DHT22;54665;51.462;6.698;2023-04-25T14:13:14;12.02;52.59
67862;DHT22;54665;51.462;6.698;2023-04-25T14:15:40;12.08;48.51
67862;DHT22;54665;51.462;6.698;2023-04-25T14:18:05;11.94;50.46
67862;DHT22;54665;51.462;6.698;2023-04-25T14:20:31;11.80;49.01
67862;DHT22;54665;51.462;6.698;2023-04-25T14:22:56;11.59;48.89
67862;DHT22;54665;51.462;6.698;2023-04-25T14:25:23;11.70;49.41
67862;DHT22;54665;51.462;6.698;2023-04-25T14:27:50;11.56;49.70
67862;DHT22;54665;51.462;6.698;2023-04-25T14:30:17;11.14;53.47
67862;DHT22;54665;51.462;6.698;2023-04-25T14:32:43;10.64;56.07
67862;DHT22;54665;51.462;6.698;2023-04-25T14:35:09;10.34;56.52
67862;DHT22;54665;51.462;6.698;2023-04-25T14:37:35;10.27;56.63
67862;DHT22;54665;51.462;6.698;2023-04-25T14:40:00;10.26;57.13
67862;DHT22;54665;51.462;6.698;2023-04-25T14:42:25;10.58;57.54
67862;DHT22;54665;51.462;6.698;2023-04-25T14:44:51;10.61;56.80
67862;DHT22;54665;51.462;6.698;2023-04-25T14:47:16;12.32;54.47
67862;DHT22;54665;51.462;6.698;2023-04-25T14:49:42;12.63;51.70
67862;DHT22;54665;51.462;6.698;2023-04-25T14:52:07;12.31;51.33
67862;DHT22;54665;51.462;6.698;2023-04-25T14:54:33;12.31;50.84
67862;DHT22;54665;51.462;6.698;2023-04-25T14:56:58;11.56;53.76
67862;DHT22;54665;51.462;6.698;2023-04-25T14:59:24;10.97;55.62
67862;DHT22;54665;51.462;6.698;2023-04-25T15:01:50;10.54;55.22
67862;DHT22;54665;51.462;6.698;2023-04-25T15:04:15;10.44;55.43
67862;DHT22;54665;51.462;6.698;2023-04-25T15:06:42;10.43;55.61
67862;DHT22;54665;51.462;6.698;2023-04-25T15:09:08;10.54;55.42
67862;DHT22;54665;51.462;6.698;2023-04-25T15:11:34;10.63;54.40
67862;DHT22;54665;51.462;6.698;2023-04-25T15:14:00;10.71;54.51
67862;DHT22;54665;51.462;6.698;2023-04-25T15:16:25;10.56;53.90
67862;DHT22;54665;51.462;6.698;2023-04-25T15:18:51;10.54;53.39
67862;DHT22;54665;51.462;6.698;2023-04-25T15:21:16;10.71;53.39
67862;DHT22;54665;51.462;6.698;2023-04-25T15:23:42;11.33;52.38
67862;DHT22;54665;51.462;6.698;2023-04-25T15:26:08;12.66;49.21
67862;DHT22;54665;51.462;6.698;2023-04-25T15:28:33;13.60;46.90
67862;DHT22;54665;51.462;6.698;2023-04-25T15:30:58;14.94;46.90
67862;DHT22;54665;51.462;6.698;2023-04-25T15:33:24;15.39;44.32
67862;DHT22;54665;51.462;6.698;2023-04-25T15:35:50;14.36;44.68
67862;DHT22;54665;51.462;6.698;2023-04-25T15:38:15;14.63;45.32
67862;DHT22;54665;51.462;6.698;2023-04-25T15:40:40;14.01;46.26
67862;DHT22;54665;51.462;6.698;2023-04-25T15:43:06;12.90;47.18
67862;DHT22;54665;51.462;6.698;2023-04-25T15:45:33;12.25;47.86
67862;DHT22;54665;51.462;6.698;2023-04-25T15:48:00;12.28;48.90
67862;DHT22;54665;51.462;6.698;2023-04-25T15:50:26;12.02;49.18
67862;DHT22;54665;51.462;6.698;2023-04-25T15:52:51;11.29;50.37
67862;DHT22;54665;51.462;6.698;2023-04-25T15:55:18;11.60;50.86